sensor_id;sensor_type;location;lat;lon;timestamp;temperature;humidity
7218;DHT22;3650;53.580;10.094;2023-05-29T00:00:57;15.60;36.30
7218;DHT22;3650;53.580;10.094;2023-05-29T00:03:26;15.60;37.00
7218;DHT22;3650;53.580;10.094;2023-05-29T00:05:54;15.60;37.60
7218;DHT22;3650;53.580;10.094;2023-05-29T00:08:21;15.50;37.30
7218;DHT22;3650;53.580;10.094;2023-05-29T00:10:47;15.50;37.80
7218;DHT22;3650;53.580;10.094;2023-05-29T00:13:15;15.50;37.60
7218;DHT22;3650;53.580;10.094;2023-05-29T00:15:42;15.40;37.40
7218;DHT22;3650;53.580;10.094;2023-05-29T00:18:08;15.40;37.50
7218;DHT22;3650;53.580;10.094;2023-05-29T00:20:36;15.40;37.60
7218;DHT22;3650;53.580;10.094;2023-05-29T00:23:03;15.30;37.70
7218;DHT22;3650;53.580;10.094;2023-05-29T00:25:31;15.30;37.50
7218;DHT22;3650;53.580;10.094;2023-05-29T00:27:58;15.30;37.60
7218;DHT22;3650;53.580;10.094;2023-05-29T00:30:25;15.30;38.10
7218;DHT22;3650;53.580;10.094;2023-05-29T00:32:52;15.20;38.10
7218;DHT22;3650;53.580;10.094;2023-05-29T00:35:19;15.30;38.40
7218;DHT22;3650;53.580;10.094;2023-05-29T00:37:48;15.20;38.10
7218;DHT22;3650;53.580;10.094;2023-05-29T00:40:14;15.20;38.20
7218;DHT22;3650;53.580;10.094;2023-05-29T00:42:41;15.10;38.10
7218;DHT22;3650;53.580;10.094;2023-05-29T00:45:09;15.10;38.50
7218;DHT22;3650;53.580;10.094;2023-05-29T00:47:36;15.00;38.50
7218;DHT22;3650;53.580;10.094;2023-05-29T00:50:04;15.00;38.70
7218;DHT22;3650;53.580;10.094;2023-05-29T00:52:31;15.00;38.60
7218;DHT22;3650;53.580;10.094;2023-05-29T00:55:00;15.00;39.10
7218;DHT22;3650;53.580;10.094;2023-05-29T00:57:28;14.90;39.40
7218;DHT22;3650;53.580;10.094;2023-05-29T00:59:55;14.90;39.00
7218;DHT22;3650;53.580;10.094;2023-05-29T01:02:23;14.80;39.00
7218;DHT22;3650;53.580;10.094;2023-05-29T01:04:50;14.80;39.30
7218;DHT22;3650;53.580;10.094;2023-05-29T01:07:19;14.70;40.10
7218;DHT22;3650;53.580;10.094;2023-05-29T01:09:47;14.70;40.00
7218;DHT22;3650;53.580;10.094;2023-05-29T01:12:23;14.60;40.40
7218;DHT22;3650;53.580;10.094;2023-05-29T01:15:03;14.60;40.40
7218;DHT22;3650;53.580;10.094;2023-05-29T01:17:39;14.50;39.80
7218;DHT22;3650;53.580;10.094;2023-05-29T01:20:21;14.50;39.60
7218;DHT22;3650;53.580;10.094;2023-05-29T01:23:07;14.40;39.70
7218;DHT22;3650;53.580;10.094;2023-05-29T01:25:50;14.30;39.70
7218;DHT22;3650;53.580;10.094;2023-05-29T01:28:21;14.30;40.10
7218;DHT22;3650;53.580;10.094;2023-05-29T01:30:52;14.20;40.10
7218;DHT22;3650;53.580;10.094;2023-05-29T01:33:19;14.20;40.00
7218;DHT22;3650;53.580;10.094;2023-05-29T01:35:46;14.10;40.60
7218;DHT22;3650;53.580;10.094;2023-05-29T01:38:13;14.10;40.60
7218;DHT22;3650;53.580;10.094;2023-05-29T01:40:40;14.10;39.90
7218;DHT22;3650;53.580;10.094;2023-05-29T01:43:07;14.00;39.90
7218;DHT22;3650;53.580;10.094;2023-05-29T01:45:36;13.90;40.10
7218;DHT22;3650;53.580;10.094;2023-05-29T01:48:04;13.90;40.10
7218;DHT22;3650;53.580;10.094;2023-05-29T01:50:31;13.80;40.40
7218;DHT22;3650;53.580;10.094;2023-05-29T01:52:58;13.80;41.30
7218;DHT22;3650;53.580;10.094;2023-05-29T01:55:24;13.70;41.00
7218;DHT22;3650;53.580;10.094;2023-05-29T01:57:51;13.70;41.80
7218;DHT22;3650;53.580;10.094;2023-05-29T02:00:19;13.70;41.70
7218;DHT22;3650;53.580;10.094;2023-05-29T02:02:47;13.50;41.80
7218;DHT22;3650;53.580;10.094;2023-05-29T02:05:14;13.50;42.10
7218;DHT22;3650;53.580;10.094;2023-05-29T02:07:41;13.40;41.70
7218;DHT22;3650;53.580;10.094;2023-05-29T02:10:08;13.40;42.60
7218;DHT22;3650;53.580;10.094;2023-05-29T02:12:35;13.40;42.30
7218;DHT22;3650;53.580;10.094;2023-05-29T02:15:03;13.20;42.60
7218;DHT22;3650;53.580;10.094;2023-05-29T02:17:30;13.20;43.00
7218;DHT22;3650;53.580;10.094;2023-05-29T02:19:58;13.20;44.00
7218;DHT22;3650;53.580;10.094;2023-05-29T02:22:25;13.10;43.50
7218;DHT22;3650;53.580;10.094;2023-05-29T02:24:52;13.10;43.90
7218;DHT22;3650;53.580;10.094;2023-05-29T02:27:19;13.00;44.10
7218;DHT22;3650;53.580;10.094;2023-05-29T02:29:45;13.00;44.00
7218;DHT22;3650;53.580;10.094;2023-05-29T02:32:12;13.00;44.70
7218;DHT22;3650;53.580;10.094;2023-05-29T02:34:39;12.90;44.50
7218;DHT22;3650;53.580;10.094;2023-05-29T02:37:07;12.90;44.60
7218;DHT22;3650;53.580;10.094;2023-05-29T02:39:34;12.80;45.30
7218;DHT22;3650;53.580;10.094;2023-05-29T02:42:00;12.80;45.60
7218;DHT22;3650;53.580;10.094;2023-05-29T02:44:27;12.70;45.70
7218;DHT22;3650;53.580;10.094;2023-05-29T02:46:54;12.70;46.10
7218;DHT22;3650;53.580;10.094;2023-05-29T02:49:21;12.70;46.60
7218;DHT22;3650;53.580;10.094;2023-05-29T02:51:48;12.60;46.70
7218;DHT22;3650;53.580;10.094;2023-05-29T02:54:16;12.60;46.80
7218;DHT22;3650;53.580;10.094;2023-05-29T02:56:43;12.60;46.90
7218;DHT22;3650;53.580;10.094;2023-05-29T02:59:09;12.60;47.20
7218;DHT22;3650;53.580;10.094;2023-05-29T03:01:36;12.50;47.10
7218;DHT22;3650;53.580;10.094;2023-05-29T03:04:03;12.50;47.30
7218;DHT22;3650;53.580;10.094;2023-05-29T03:06:30;12.50;47.20
7218;DHT22;3650;53.580;10.094;2023-05-29T03:08:57;12.40;47.50
7218;DHT22;3650;53.580;10.094;2023-05-29T03:11:26;12.40;48.20
7218;DHT22;3650;53.580;10.094;2023-05-29T03:13:54;12.40;47.80
7218;DHT22;3650;53.580;10.094;2023-05-29T03:16:21;12.40;48.00
7218;DHT22;3650;53.580;10.094;2023-05-29T03:18:47;12.40;48.30
7218;DHT22;3650;53.580;10.094;2023-05-29T03:21:16;12.30;48.00
7218;DHT22;3650;53.580;10.094;2023-05-29T03:23:43;12.30;48.30
7218;DHT22;3650;53.580;10.094;2023-05-29T03:26:09;12.30;48.50
7218;DHT22;3650;53.580;10.094;2023-05-29T03:28:39;12.20;48.70
7218;DHT22;3650;53.580;10.094;2023-05-29T03:31:06;12.20;49.20
7218;DHT22;3650;53.580;10.094;2023-05-29T03:33:33;12.20;49.50
7218;DHT22;3650;53.580;10.094;2023-05-29T03:36:00;12.20;49.30
7218;DHT22;3650;53.580;10.094;2023-05-29T03:38:27;12.20;49.40
7218;DHT22;3650;53.580;10.094;2023-05-29T03:40:54;12.20;49.20
7218;DHT22;3650;53.580;10.094;2023-05-29T03:43:20;12.20;49.10
7218;DHT22;3650;53.580;10.094;2023-05-29T03:45:49;12.10;49.00
7218;DHT22;3650;53.580;10.094;2023-05-29T03:48:15;12.10;49.00
7218;DHT22;3650;53.580;10.094;2023-05-29T03:50:44;12.10;49.30
7218;DHT22;3650;53.580;10.094;2023-05-29T03:53:10;12.10;49.80
7218;DHT22;3650;53.580;10.094;2023-05-29T03:55:37;12.00;50.40
7218;DHT22;3650;53.580;10.094;2023-05-29T03:58:04;12.00;50.50
7218;DHT22;3650;53.580;10.094;2023-05-29T04:00:31;12.00;50.90
7218;DHT22;3650;53.580;10.094;2023-05-29T04:02:59;12.00;50.90
7218;DHT22;3650;53.580;10.094;2023-05-29T04:05:26;11.90;50.90
7218;DHT22;3650;53.580;10.094;2023-05-29T04:07:52;12.00;50.90
7218;DHT22;3650;53.580;10.094;2023-05-29T04:10:19;12.00;50.90
7218;DHT22;3650;53.580;10.094;2023-05-29T04:12:46;12.00;50.90
7218;DHT22;3650;53.580;10.094;2023-05-29T04:15:13;11.90;50.80
7218;DHT22;3650;53.580;10.094;2023-05-29T04:17:40;11.90;50.80
7218;DHT22;3650;53.580;10.094;2023-05-29T04:20:09;11.90;50.80
7218;DHT22;3650;53.580;10.094;2023-05-29T04:22:36;11.90;50.80
7218;DHT22;3650;53.580;10.094;2023-05-29T04:25:03;11.90;50.90
7218;DHT22;3650;53.580;10.094;2023-05-29T04:27:30;11.90;50.90
7218;DHT22;3650;53.580;10.094;2023-05-29T04:29:57;11.90;50.80
7218;DHT22;3650;53.580;10.094;2023-05-29T04:32:25;11.90;50.80
7218;DHT22;3650;53.580;10.094;2023-05-29T04:34:52;11.90;51.30
7218;DHT22;3650;53.580;10.094;2023-05-29T04:37:20;11.90;51.80
7218;DHT22;3650;53.580;10.094;2023-05-29T04:39:55;11.90;52.10
7218;DHT22;3650;53.580;10.094;2023-05-29T04:42:23;11.90;52.50
7218;DHT22;3650;53.580;10.094;2023-05-29T04:44:50;11.90;52.30
7218;DHT22;3650;53.580;10.094;2023-05-29T04:47:18;11.90;52.20
7218;DHT22;3650;53.580;10.094;2023-05-29T04:49:45;11.90;52.10
7218;DHT22;3650;53.580;10.094;2023-05-29T04:52:14;12.00;51.70
7218;DHT22;3650;53.580;10.094;2023-05-29T04:54:43;12.00;51.20
7218;DHT22;3650;53.580;10.094;2023-05-29T04:57:10;12.00;51.00
7218;DHT22;3650;53.580;10.094;2023-05-29T04:59:37;12.00;50.90
7218;DHT22;3650;53.580;10.094;2023-05-29T05:02:04;12.00;51.00
7218;DHT22;3650;53.580;10.094;2023-05-29T05:04:31;12.00;51.00
7218;DHT22;3650;53.580;10.094;2023-05-29T05:06:58;12.10;51.00
7218;DHT22;3650;53.580;10.094;2023-05-29T05:09:26;12.10;51.00
7218;DHT22;3650;53.580;10.094;2023-05-29T05:11:54;12.10;51.00
7218;DHT22;3650;53.580;10.094;2023-05-29T05:14:21;12.10;51.00
7218;DHT22;3650;53.580;10.094;2023-05-29T05:16:48;12.10;51.00
7218;DHT22;3650;53.580;10.094;2023-05-29T05:19:15;12.10;52.10
7218;DHT22;3650;53.580;10.094;2023-05-29T05:21:42;12.20;52.30
7218;DHT22;3650;53.580;10.094;2023-05-29T05:24:09;12.20;51.10
7218;DHT22;3650;53.580;10.094;2023-05-29T05:26:35;12.20;51.10
7218;DHT22;3650;53.580;10.094;2023-05-29T05:29:03;12.30;50.40
7218;DHT22;3650;53.580;10.094;2023-05-29T05:31:30;12.30;49.70
7218;DHT22;3650;53.580;10.094;2023-05-29T05:33:57;12.40;49.40
7218;DHT22;3650;53.580;10.094;2023-05-29T05:36:24;12.40;49.40
7218;DHT22;3650;53.580;10.094;2023-05-29T05:38:51;12.40;49.50
7218;DHT22;3650;53.580;10.094;2023-05-29T05:41:18;12.40;50.10
7218;DHT22;3650;53.580;10.094;2023-05-29T05:43:44;12.40;50.20
7218;DHT22;3650;53.580;10.094;2023-05-29T05:46:13;12.40;49.80
7218;DHT22;3650;53.580;10.094;2023-05-29T05:48:40;12.50;49.60
7218;DHT22;3650;53.580;10.094;2023-05-29T05:51:07;12.50;50.40
7218;DHT22;3650;53.580;10.094;2023-05-29T05:53:34;12.50;50.10
7218;DHT22;3650;53.580;10.094;2023-05-29T05:56:01;12.60;50.00
7218;DHT22;3650;53.580;10.094;2023-05-29T05:58:27;12.60;49.10
7218;DHT22;3650;53.580;10.094;2023-05-29T06:00:54;12.60;48.50
7218;DHT22;3650;53.580;10.094;2023-05-29T06:03:24;12.60;48.20
7218;DHT22;3650;53.580;10.094;2023-05-29T06:05:51;12.60;47.90
7218;DHT22;3650;53.580;10.094;2023-05-29T06:08:19;12.70;47.30
7218;DHT22;3650;53.580;10.094;2023-05-29T06:10:46;12.70;47.30
7218;DHT22;3650;53.580;10.094;2023-05-29T06:13:13;12.70;47.20
7218;DHT22;3650;53.580;10.094;2023-05-29T06:15:42;12.70;47.20
7218;DHT22;3650;53.580;10.094;2023-05-29T06:18:09;12.80;46.70
7218;DHT22;3650;53.580;10.094;2023-05-29T06:20:37;12.80;46.10
7218;DHT22;3650;53.580;10.094;2023-05-29T06:23:04;12.80;46.10
7218;DHT22;3650;53.580;10.094;2023-05-29T06:25:31;12.90;45.30
7218;DHT22;3650;53.580;10.094;2023-05-29T06:27:59;12.80;45.50
7218;DHT22;3650;53.580;10.094;2023-05-29T06:30:26;12.90;45.50
7218;DHT22;3650;53.580;10.094;2023-05-29T06:32:53;12.90;45.60
7218;DHT22;3650;53.580;10.094;2023-05-29T06:35:20;12.90;45.50
7218;DHT22;3650;53.580;10.094;2023-05-29T06:37:48;12.90;46.30
7218;DHT22;3650;53.580;10.094;2023-05-29T06:40:15;12.90;46.10
7218;DHT22;3650;53.580;10.094;2023-05-29T06:42:42;12.90;45.80
7218;DHT22;3650;53.580;10.094;2023-05-29T06:45:10;13.00;45.50
7218;DHT22;3650;53.580;10.094;2023-05-29T06:47:39;13.00;45.10
7218;DHT22;3650;53.580;10.094;2023-05-29T06:50:07;13.00;45.10
7218;DHT22;3650;53.580;10.094;2023-05-29T06:52:34;13.10;45.70
7218;DHT22;3650;53.580;10.094;2023-05-29T06:55:02;13.10;45.60
7218;DHT22;3650;53.580;10.094;2023-05-29T06:57:29;13.10;44.70
7218;DHT22;3650;53.580;10.094;2023-05-29T06:59:56;13.10;44.30
7218;DHT22;3650;53.580;10.094;2023-05-29T07:02:23;13.20;43.00
7218;DHT22;3650;53.580;10.094;2023-05-29T07:04:49;13.20;43.40
7218;DHT22;3650;53.580;10.094;2023-05-29T07:07:17;13.10;43.30
7218;DHT22;3650;53.580;10.094;2023-05-29T07:09:43;13.20;43.40
7218;DHT22;3650;53.580;10.094;2023-05-29T07:12:11;13.20;43.40
7218;DHT22;3650;53.580;10.094;2023-05-29T07:14:38;13.20;44.00
7218;DHT22;3650;53.580;10.094;2023-05-29T07:17:05;13.20;43.60
7218;DHT22;3650;53.580;10.094;2023-05-29T07:19:32;13.30;43.50
7218;DHT22;3650;53.580;10.094;2023-05-29T07:21:59;13.30;43.50
7218;DHT22;3650;53.580;10.094;2023-05-29T07:24:26;13.30;43.20
7218;DHT22;3650;53.580;10.094;2023-05-29T07:26:53;13.30;42.90
7218;DHT22;3650;53.580;10.094;2023-05-29T07:29:22;13.40;42.20
7218;DHT22;3650;53.580;10.094;2023-05-29T07:31:48;13.40;41.90
7218;DHT22;3650;53.580;10.094;2023-05-29T07:34:15;13.40;42.10
7218;DHT22;3650;53.580;10.094;2023-05-29T07:36:56;13.40;43.20
7218;DHT22;3650;53.580;10.094;2023-05-29T07:39:24;13.50;42.40
7218;DHT22;3650;53.580;10.094;2023-05-29T07:41:51;13.50;42.50
7218;DHT22;3650;53.580;10.094;2023-05-29T07:44:18;13.50;42.00
7218;DHT22;3650;53.580;10.094;2023-05-29T07:46:46;13.50;41.10
7218;DHT22;3650;53.580;10.094;2023-05-29T07:49:13;13.60;41.70
7218;DHT22;3650;53.580;10.094;2023-05-29T07:51:40;13.60;41.50
7218;DHT22;3650;53.580;10.094;2023-05-29T07:54:07;13.60;41.30
7218;DHT22;3650;53.580;10.094;2023-05-29T07:56:34;13.70;42.20
7218;DHT22;3650;53.580;10.094;2023-05-29T07:59:01;13.70;41.20
7218;DHT22;3650;53.580;10.094;2023-05-29T08:01:28;13.80;40.70
7218;DHT22;3650;53.580;10.094;2023-05-29T08:03:57;13.80;39.80
7218;DHT22;3650;53.580;10.094;2023-05-29T08:06:23;13.80;39.60
7218;DHT22;3650;53.580;10.094;2023-05-29T08:08:50;13.90;39.70
7218;DHT22;3650;53.580;10.094;2023-05-29T08:11:18;13.90;39.70
7218;DHT22;3650;53.580;10.094;2023-05-29T08:13:45;14.00;39.90
7218;DHT22;3650;53.580;10.094;2023-05-29T08:16:12;14.00;40.50
7218;DHT22;3650;53.580;10.094;2023-05-29T08:18:41;14.00;39.80
7218;DHT22;3650;53.580;10.094;2023-05-29T08:21:09;14.00;39.00
7218;DHT22;3650;53.580;10.094;2023-05-29T08:23:37;14.00;37.80
7218;DHT22;3650;53.580;10.094;2023-05-29T08:26:04;14.10;37.30
7218;DHT22;3650;53.580;10.094;2023-05-29T08:28:31;14.10;37.10
7218;DHT22;3650;53.580;10.094;2023-05-29T08:30:57;14.10;37.60
7218;DHT22;3650;53.580;10.094;2023-05-29T08:33:24;14.10;37.60
7218;DHT22;3650;53.580;10.094;2023-05-29T08:35:51;14.20;38.10
7218;DHT22;3650;53.580;10.094;2023-05-29T08:38:19;14.20;38.50
7218;DHT22;3650;53.580;10.094;2023-05-29T08:40:47;14.20;38.70
7218;DHT22;3650;53.580;10.094;2023-05-29T08:43:17;14.20;38.90
7218;DHT22;3650;53.580;10.094;2023-05-29T08:45:44;14.30;38.20
7218;DHT22;3650;53.580;10.094;2023-05-29T08:48:12;14.30;36.90
7218;DHT22;3650;53.580;10.094;2023-05-29T08:50:43;14.40;37.40
7218;DHT22;3650;53.580;10.094;2023-05-29T08:53:12;14.50;37.90
7218;DHT22;3650;53.580;10.094;2023-05-29T08:55:40;14.50;36.90
7218;DHT22;3650;53.580;10.094;2023-05-29T08:58:08;14.50;37.10
7218;DHT22;3650;53.580;10.094;2023-05-29T09:00:36;14.50;37.10
7218;DHT22;3650;53.580;10.094;2023-05-29T09:03:03;14.60;38.40
7218;DHT22;3650;53.580;10.094;2023-05-29T09:05:30;14.70;37.40
7218;DHT22;3650;53.580;10.094;2023-05-29T09:07:58;14.70;36.80
7218;DHT22;3650;53.580;10.094;2023-05-29T09:10:25;14.70;36.60
7218;DHT22;3650;53.580;10.094;2023-05-29T09:12:54;14.80;36.50
7218;DHT22;3650;53.580;10.094;2023-05-29T09:15:22;14.80;37.30
7218;DHT22;3650;53.580;10.094;2023-05-29T09:17:50;14.90;37.70
7218;DHT22;3650;53.580;10.094;2023-05-29T09:20:18;14.90;37.30
7218;DHT22;3650;53.580;10.094;2023-05-29T09:22:53;14.90;36.60
7218;DHT22;3650;53.580;10.094;2023-05-29T09:25:22;15.00;36.60
7218;DHT22;3650;53.580;10.094;2023-05-29T09:27:51;15.00;37.00
7218;DHT22;3650;53.580;10.094;2023-05-29T09:30:33;15.10;37.60
7218;DHT22;3650;53.580;10.094;2023-05-29T09:33:01;15.20;37.50
7218;DHT22;3650;53.580;10.094;2023-05-29T09:35:33;15.20;36.20
7218;DHT22;3650;53.580;10.094;2023-05-29T09:38:00;15.30;36.00
7218;DHT22;3650;53.580;10.094;2023-05-29T09:40:29;15.30;36.10
7218;DHT22;3650;53.580;10.094;2023-05-29T09:43:02;15.40;36.40
7218;DHT22;3650;53.580;10.094;2023-05-29T09:45:31;15.50;36.50
7218;DHT22;3650;53.580;10.094;2023-05-29T09:47:58;15.50;36.40
7218;DHT22;3650;53.580;10.094;2023-05-29T09:50:26;15.60;36.10
7218;DHT22;3650;53.580;10.094;2023-05-29T09:52:56;15.60;36.00
7218;DHT22;3650;53.580;10.094;2023-05-29T09:55:23;15.70;36.10
7218;DHT22;3650;53.580;10.094;2023-05-29T09:57:53;15.70;35.00
7218;DHT22;3650;53.580;10.094;2023-05-29T10:00:20;15.80;34.40
7218;DHT22;3650;53.580;10.094;2023-05-29T10:02:49;15.80;34.40
7218;DHT22;3650;53.580;10.094;2023-05-29T10:05:16;15.90;34.00
7218;DHT22;3650;53.580;10.094;2023-05-29T10:07:44;16.00;33.90
7218;DHT22;3650;53.580;10.094;2023-05-29T10:10:13;16.00;34.30
7218;DHT22;3650;53.580;10.094;2023-05-29T10:12:45;16.10;33.90
7218;DHT22;3650;53.580;10.094;2023-05-29T10:15:14;16.10;33.10
7218;DHT22;3650;53.580;10.094;2023-05-29T10:17:51;16.20;32.40
7218;DHT22;3650;53.580;10.094;2023-05-29T10:20:20;16.30;31.80
7218;DHT22;3650;53.580;10.094;2023-05-29T10:22:51;16.30;31.60
7218;DHT22;3650;53.580;10.094;2023-05-29T10:25:19;16.40;31.50
7218;DHT22;3650;53.580;10.094;2023-05-29T10:27:47;16.40;32.30
7218;DHT22;3650;53.580;10.094;2023-05-29T10:30:24;16.50;32.40
7218;DHT22;3650;53.580;10.094;2023-05-29T10:33:30;16.50;32.30
7218;DHT22;3650;53.580;10.094;2023-05-29T10:36:04;16.60;31.30
7218;DHT22;3650;53.580;10.094;2023-05-29T10:38:34;16.70;31.20
7218;DHT22;3650;53.580;10.094;2023-05-29T10:41:28;16.70;30.60
7218;DHT22;3650;53.580;10.094;2023-05-29T10:43:56;16.80;30.60
7218;DHT22;3650;53.580;10.094;2023-05-29T10:47:06;16.80;29.40
7218;DHT22;3650;53.580;10.094;2023-05-29T10:49:35;16.90;28.80
7218;DHT22;3650;53.580;10.094;2023-05-29T10:52:03;16.90;30.70
7218;DHT22;3650;53.580;10.094;2023-05-29T10:54:40;17.00;28.90
7218;DHT22;3650;53.580;10.094;2023-05-29T10:57:08;17.00;29.30
7218;DHT22;3650;53.580;10.094;2023-05-29T10:59:36;17.10;29.90
7218;DHT22;3650;53.580;10.094;2023-05-29T11:02:04;17.10;30.90
7218;DHT22;3650;53.580;10.094;2023-05-29T11:04:32;17.20;29.80
7218;DHT22;3650;53.580;10.094;2023-05-29T11:07:01;17.30;30.00
7218;DHT22;3650;53.580;10.094;2023-05-29T11:09:33;17.30;28.10
7218;DHT22;3650;53.580;10.094;2023-05-29T11:12:12;17.40;29.00
7218;DHT22;3650;53.580;10.094;2023-05-29T11:14:46;17.40;28.30
7218;DHT22;3650;53.580;10.094;2023-05-29T11:17:34;17.50;29.20
7218;DHT22;3650;53.580;10.094;2023-05-29T11:20:16;17.60;28.40
7218;DHT22;3650;53.580;10.094;2023-05-29T11:23:00;17.70;27.20
7218;DHT22;3650;53.580;10.094;2023-05-29T11:25:28;17.70;27.50
7218;DHT22;3650;53.580;10.094;2023-05-29T11:27:55;17.70;27.20
7218;DHT22;3650;53.580;10.094;2023-05-29T11:30:22;17.80;26.70
7218;DHT22;3650;53.580;10.094;2023-05-29T11:32:49;17.80;27.80
7218;DHT22;3650;53.580;10.094;2023-05-29T11:35:20;17.90;25.70
7218;DHT22;3650;53.580;10.094;2023-05-29T11:37:48;17.90;26.80
7218;DHT22;3650;53.580;10.094;2023-05-29T11:40:17;18.00;28.30
7218;DHT22;3650;53.580;10.094;2023-05-29T11:42:46;18.10;25.40
7218;DHT22;3650;53.580;10.094;2023-05-29T11:45:15;18.10;25.20
7218;DHT22;3650;53.580;10.094;2023-05-29T11:47:52;18.10;24.90
7218;DHT22;3650;53.580;10.094;2023-05-29T11:50:20;18.20;26.20
7218;DHT22;3650;53.580;10.094;2023-05-29T11:52:48;18.30;28.40
7218;DHT22;3650;53.580;10.094;2023-05-29T11:55:16;18.40;25.90
7218;DHT22;3650;53.580;10.094;2023-05-29T11:57:43;18.40;28.40
7218;DHT22;3650;53.580;10.094;2023-05-29T12:00:13;18.50;26.70
7218;DHT22;3650;53.580;10.094;2023-05-29T12:02:40;18.50;24.60
7218;DHT22;3650;53.580;10.094;2023-05-29T12:05:09;18.60;23.80
7218;DHT22;3650;53.580;10.094;2023-05-29T12:07:46;18.70;23.80
7218;DHT22;3650;53.580;10.094;2023-05-29T12:10:15;18.70;24.30
7218;DHT22;3650;53.580;10.094;2023-05-29T12:12:47;18.70;24.70
7218;DHT22;3650;53.580;10.094;2023-05-29T12:15:15;18.80;25.00
7218;DHT22;3650;53.580;10.094;2023-05-29T12:17:43;18.80;24.40
7218;DHT22;3650;53.580;10.094;2023-05-29T12:20:11;18.90;24.60
7218;DHT22;3650;53.580;10.094;2023-05-29T12:22:40;18.90;23.80
7218;DHT22;3650;53.580;10.094;2023-05-29T12:25:10;19.00;24.20
7218;DHT22;3650;53.580;10.094;2023-05-29T12:27:38;19.00;26.20
7218;DHT22;3650;53.580;10.094;2023-05-29T12:30:10;19.10;25.30
7218;DHT22;3650;53.580;10.094;2023-05-29T12:32:40;19.10;23.70
7218;DHT22;3650;53.580;10.094;2023-05-29T12:35:12;19.20;23.50
7218;DHT22;3650;53.580;10.094;2023-05-29T12:37:43;19.20;23.40
7218;DHT22;3650;53.580;10.094;2023-05-29T12:40:13;19.30;26.00
7218;DHT22;3650;53.580;10.094;2023-05-29T12:42:40;19.40;24.00
7218;DHT22;3650;53.580;10.094;2023-05-29T12:45:09;19.40;21.50
7218;DHT22;3650;53.580;10.094;2023-05-29T12:47:36;19.50;21.60
7218;DHT22;3650;53.580;10.094;2023-05-29T12:50:21;19.50;21.20
7218;DHT22;3650;53.580;10.094;2023-05-29T12:52:56;19.60;23.20
7218;DHT22;3650;53.580;10.094;2023-05-29T12:55:23;19.60;21.20
7218;DHT22;3650;53.580;10.094;2023-05-29T12:57:50;19.60;22.50
7218;DHT22;3650;53.580;10.094;2023-05-29T13:00:19;19.70;22.30
7218;DHT22;3650;53.580;10.094;2023-05-29T13:02:47;19.70;21.20
7218;DHT22;3650;53.580;10.094;2023-05-29T13:05:14;19.70;22.10
7218;DHT22;3650;53.580;10.094;2023-05-29T13:07:44;19.80;22.50
7218;DHT22;3650;53.580;10.094;2023-05-29T13:10:12;19.90;21.90
7218;DHT22;3650;53.580;10.094;2023-05-29T13:12:39;19.90;21.40
7218;DHT22;3650;53.580;10.094;2023-05-29T13:15:07;20.00;21.50
7218;DHT22;3650;53.580;10.094;2023-05-29T13:17:35;20.00;21.50
7218;DHT22;3650;53.580;10.094;2023-05-29T13:20:02;20.00;20.60
7218;DHT22;3650;53.580;10.094;2023-05-29T13:22:31;20.00;21.50
7218;DHT22;3650;53.580;10.094;2023-05-29T13:24:58;20.10;21.60
7218;DHT22;3650;53.580;10.094;2023-05-29T13:27:26;20.10;21.30
7218;DHT22;3650;53.580;10.094;2023-05-29T13:29:53;20.20;21.70
7218;DHT22;3650;53.580;10.094;2023-05-29T13:32:20;20.20;23.10
7218;DHT22;3650;53.580;10.094;2023-05-29T13:34:49;20.30;21.80
7218;DHT22;3650;53.580;10.094;2023-05-29T13:37:15;20.40;21.80
7218;DHT22;3650;53.580;10.094;2023-05-29T13:39:42;20.40;19.60
7218;DHT22;3650;53.580;10.094;2023-05-29T13:42:09;20.50;20.40
7218;DHT22;3650;53.580;10.094;2023-05-29T13:44:37;20.40;19.90
7218;DHT22;3650;53.580;10.094;2023-05-29T13:47:05;20.50;19.70
7218;DHT22;3650;53.580;10.094;2023-05-29T13:49:32;20.50;20.50
7218;DHT22;3650;53.580;10.094;2023-05-29T13:52:01;20.60;21.00
7218;DHT22;3650;53.580;10.094;2023-05-29T13:54:28;20.60;20.20
7218;DHT22;3650;53.580;10.094;2023-05-29T13:56:57;20.60;20.30
7218;DHT22;3650;53.580;10.094;2023-05-29T13:59:24;20.70;20.30
7218;DHT22;3650;53.580;10.094;2023-05-29T14:01:51;20.70;19.40
7218;DHT22;3650;53.580;10.094;2023-05-29T14:04:18;20.70;19.00
7218;DHT22;3650;53.580;10.094;2023-05-29T14:06:44;20.80;19.60
7218;DHT22;3650;53.580;10.094;2023-05-29T14:09:13;20.80;19.00
7218;DHT22;3650;53.580;10.094;2023-05-29T14:11:39;20.80;18.90
7218;DHT22;3650;53.580;10.094;2023-05-29T14:14:06;20.90;20.00
7218;DHT22;3650;53.580;10.094;2023-05-29T14:16:33;21.00;19.90
7218;DHT22;3650;53.580;10.094;2023-05-29T14:19:00;21.00;19.80
7218;DHT22;3650;53.580;10.094;2023-05-29T14:21:27;21.10;19.40
7218;DHT22;3650;53.580;10.094;2023-05-29T14:23:54;21.10;19.20
7218;DHT22;3650;53.580;10.094;2023-05-29T14:26:22;21.20;19.10
7218;DHT22;3650;53.580;10.094;2023-05-29T14:28:50;21.20;18.80
7218;DHT22;3650;53.580;10.094;2023-05-29T14:31:17;21.40;18.50
7218;DHT22;3650;53.580;10.094;2023-05-29T14:33:43;21.50;18.60
7218;DHT22;3650;53.580;10.094;2023-05-29T14:36:10;21.50;18.40
7218;DHT22;3650;53.580;10.094;2023-05-29T14:38:38;21.70;17.70
7218;DHT22;3650;53.580;10.094;2023-05-29T14:41:04;21.90;18.20
7218;DHT22;3650;53.580;10.094;2023-05-29T14:43:33;22.00;18.20
7218;DHT22;3650;53.580;10.094;2023-05-29T14:46:00;22.30;17.60
7218;DHT22;3650;53.580;10.094;2023-05-29T14:48:27;22.50;16.90
7218;DHT22;3650;53.580;10.094;2023-05-29T14:50:53;22.60;16.90
7218;DHT22;3650;53.580;10.094;2023-05-29T14:53:20;22.80;16.60
7218;DHT22;3650;53.580;10.094;2023-05-29T14:55:48;22.80;16.50
7218;DHT22;3650;53.580;10.094;2023-05-29T14:58:15;23.00;16.20
7218;DHT22;3650;53.580;10.094;2023-05-29T15:00:43;23.00;15.60
7218;DHT22;3650;53.580;10.094;2023-05-29T15:03:10;22.90;16.20
7218;DHT22;3650;53.580;10.094;2023-05-29T15:05:36;22.80;16.70
7218;DHT22;3650;53.580;10.094;2023-05-29T15:08:03;22.70;16.90
7218;DHT22;3650;53.580;10.094;2023-05-29T15:10:30;22.50;16.60
7218;DHT22;3650;53.580;10.094;2023-05-29T15:12:58;22.40;16.70
7218;DHT22;3650;53.580;10.094;2023-05-29T15:15:25;22.20;16.90
7218;DHT22;3650;53.580;10.094;2023-05-29T15:17:54;22.10;17.20
7218;DHT22;3650;53.580;10.094;2023-05-29T15:20:22;21.90;17.20
7218;DHT22;3650;53.580;10.094;2023-05-29T15:22:49;21.80;17.20
7218;DHT22;3650;53.580;10.094;2023-05-29T15:25:16;21.70;17.30
7218;DHT22;3650;53.580;10.094;2023-05-29T15:27:44;21.60;18.50
7218;DHT22;3650;53.580;10.094;2023-05-29T15:30:12;21.50;17.30
7218;DHT22;3650;53.580;10.094;2023-05-29T15:32:40;21.40;17.40
7218;DHT22;3650;53.580;10.094;2023-05-29T15:35:09;21.30;18.00
7218;DHT22;3650;53.580;10.094;2023-05-29T15:37:37;21.30;18.50
7218;DHT22;3650;53.580;10.094;2023-05-29T15:40:05;21.20;18.90
7218;DHT22;3650;53.580;10.094;2023-05-29T15:42:32;21.20;18.80
7218;DHT22;3650;53.580;10.094;2023-05-29T15:44:59;21.20;19.80
7218;DHT22;3650;53.580;10.094;2023-05-29T15:47:28;21.10;20.00
7218;DHT22;3650;53.580;10.094;2023-05-29T15:49:55;21.10;20.00
7218;DHT22;3650;53.580;10.094;2023-05-29T15:52:24;21.10;20.20